Aviation Digital Data Service (ADDS)

Output produced by METARs form (2241 UTC 01 February 2023)
found at http://www.aviationweather.gov/metar/data/
 
KABY 012153Z 30006KT 10SM BKN055 24/16 A3015 RMK AO2 SLP210 T02390156
KABY 011728Z 0118/0218 31005KT P6SM SCT012 
     FM020500 VRB03KT P6SM BKN015 
     FM020800 VRB03KT P6SM BKN008 
     TEMPO 0209/0213 1SM BR BKN004 
     FM021400 28005KT P6SM SCT015